createdAt,value
2023-04-16T00:00:51.862Z,92.05
2023-04-16T00:03:25.187Z,78.68
2023-04-16T00:06:00.803Z,82.05
2023-04-16T00:08:38.906Z,78.35
2023-04-16T00:11:12.337Z,87.80
2023-04-16T00:13:47.383Z,72.38
2023-04-16T00:16:20.780Z,77.13
2023-04-16T00:18:54.077Z,82.25
2023-04-16T00:21:29.651Z,73.70
2023-04-16T00:24:03.212Z,75.45
2023-04-16T00:26:36.388Z,82.65
2023-04-16T00:29:09.866Z,72.88
2023-04-16T00:31:43.588Z,70.30
2023-04-16T00:34:19.527Z,68.47
2023-04-16T00:36:55.427Z,78.05
2023-04-16T00:39:28.899Z,71.15
2023-04-16T00:42:02.119Z,69.07
2023-04-16T00:44:37.515Z,65.53
2023-04-16T00:47:15.019Z,70.88
2023-04-16T00:49:51.584Z,66.63
2023-04-16T00:52:27.194Z,64.30
2023-04-16T00:55:02.452Z,63.78
2023-04-16T00:57:36.793Z,70.90
2023-04-16T01:00:11.001Z,59.75
2023-04-16T01:02:44.809Z,66.93
2023-04-16T01:05:18.265Z,70.53
2023-04-16T01:07:56.309Z,79.43
2023-04-16T01:10:29.255Z,68.80
2023-04-16T01:13:02.824Z,67.32
2023-04-16T01:15:36.549Z,66.32
2023-04-16T01:18:18.978Z,72.82
2023-04-16T01:20:55.407Z,71.57
2023-04-16T01:23:29.004Z,70.75
2023-04-16T01:26:02.162Z,62.85
2023-04-16T01:28:35.490Z,74.25
2023-04-16T01:31:09.271Z,65.20
2023-04-16T01:33:55.606Z,73.90
2023-04-16T01:36:31.088Z,68.90
2023-04-16T01:39:04.643Z,68.90
2023-04-16T01:41:38.214Z,72.20
2023-04-16T01:44:11.853Z,76.35
2023-04-16T01:46:45.448Z,66.53
2023-04-16T01:49:18.431Z,71.15
2023-04-16T01:51:53.342Z,81.22
2023-04-16T01:54:27.158Z,72.88
2023-04-16T01:56:59.958Z,73.45
2023-04-16T01:59:34.579Z,79.53
2023-04-16T02:02:15.612Z,74.90
2023-04-16T02:04:50.100Z,67.45
2023-04-16T02:07:25.683Z,90.72
2023-04-16T02:09:59.762Z,72.55
2023-04-16T02:12:34.170Z,63.10
2023-04-16T02:15:11.535Z,78.10
2023-04-16T02:20:52.605Z,65.65
2023-04-16T02:23:29.462Z,73.60
2023-04-16T02:26:07.245Z,72.30
2023-04-16T02:28:40.532Z,66.93
2023-04-16T02:31:16.431Z,81.15
2023-04-16T02:33:50.644Z,65.97
2023-04-16T02:36:25.593Z,63.75
2023-04-16T02:39:00.469Z,61.45
2023-04-16T02:41:33.636Z,56.65
2023-04-16T02:44:07.235Z,70.68
2023-04-16T02:46:41.224Z,64.95
2023-04-16T02:49:15.602Z,59.45
2023-04-16T02:51:51.593Z,59.75
2023-04-16T02:54:24.739Z,59.35
2023-04-16T02:56:58.364Z,55.72
2023-04-16T02:59:31.691Z,55.40
2023-04-16T03:02:05.267Z,58.30
2023-04-16T03:04:39.074Z,41.83
2023-04-16T03:07:14.944Z,36.17
2023-04-16T03:09:48.365Z,43.08
2023-04-16T03:12:21.315Z,41.45
2023-04-16T03:14:56.041Z,44.13
2023-04-16T03:17:29.685Z,44.13
2023-04-16T03:20:03.557Z,47.10
2023-04-16T03:22:38.560Z,57.17
2023-04-16T03:25:12.748Z,45.28
2023-04-16T03:27:45.629Z,45.53
2023-04-16T03:30:20.219Z,48.33
2023-04-16T03:32:53.878Z,49.03
2023-04-16T03:35:27.249Z,47.22
2023-04-16T03:38:02.853Z,51.17
2023-04-16T03:40:36.023Z,50.92
2023-04-16T03:43:10.473Z,50.33
2023-04-16T03:45:49.044Z,48.92
2023-04-16T03:48:23.885Z,45.88
2023-04-16T03:50:57.187Z,49.10
2023-04-16T03:53:32.955Z,61.55
2023-04-16T03:56:08.156Z,50.90
2023-04-16T03:58:41.300Z,51.85
2023-04-16T04:01:19.680Z,50.92
2023-04-16T04:03:53.192Z,54.08
2023-04-16T04:06:26.550Z,57.50
2023-04-16T04:09:01.610Z,60.50
2023-04-16T04:11:38.036Z,55.17
2023-04-16T04:14:11.241Z,54.25
2023-04-16T04:16:45.400Z,48.78
2023-04-16T04:19:18.858Z,54.63
2023-04-16T04:21:52.896Z,50.45
2023-04-16T04:24:28.896Z,54.38
2023-04-16T04:27:03.475Z,48.33
2023-04-16T04:29:41.113Z,47.22
2023-04-16T04:32:14.268Z,51.72
2023-04-16T04:34:47.442Z,56.75
2023-04-16T04:37:21.435Z,48.38
2023-04-16T04:39:59.235Z,48.42
2023-04-16T04:42:33.609Z,47.33
2023-04-16T04:45:07.357Z,46.38
2023-04-16T04:47:41.637Z,42.53
2023-04-16T04:50:16.541Z,40.00
2023-04-16T04:52:49.899Z,41.97
2023-04-16T04:55:26.234Z,41.92
2023-04-16T04:57:59.279Z,43.30
2023-04-16T05:00:32.780Z,48.00
2023-04-16T05:03:09.740Z,44.83
2023-04-16T05:05:45.048Z,51.15
2023-04-16T05:08:19.132Z,48.88
2023-04-16T05:10:56.401Z,60.85
2023-04-16T05:13:30.409Z,53.83
2023-04-16T05:16:05.748Z,47.20
2023-04-16T05:18:38.862Z,56.35
2023-04-16T05:21:11.705Z,61.97
2023-04-16T05:23:45.264Z,46.58
2023-04-16T05:26:21.358Z,42.90
2023-04-16T05:28:55.043Z,52.20
2023-04-16T05:31:28.276Z,43.28
2023-04-16T05:34:01.422Z,47.42
2023-04-16T05:36:34.271Z,41.67
2023-04-16T05:39:07.660Z,48.28
2023-04-16T05:41:42.708Z,39.13
2023-04-16T05:44:18.705Z,47.63
2023-04-16T05:46:51.927Z,50.65
2023-04-16T05:49:25.177Z,48.85
2023-04-16T05:51:58.452Z,47.00
2023-04-16T05:54:31.561Z,48.58
2023-04-16T05:57:07.090Z,58.70
2023-04-16T05:59:39.887Z,48.25
2023-04-16T06:02:13.618Z,50.90
2023-04-16T06:04:47.951Z,49.20
2023-04-16T06:07:20.884Z,55.25
2023-04-16T06:09:54.279Z,60.45
2023-04-16T06:12:29.544Z,50.08
2023-04-16T06:15:03.747Z,44.83
2023-04-16T06:17:37.112Z,51.58
2023-04-16T06:20:11.465Z,50.33
2023-04-16T06:22:47.226Z,49.78
2023-04-16T06:25:22.056Z,50.08
2023-04-16T06:28:00.904Z,51.55
2023-04-16T06:30:35.090Z,57.13
2023-04-16T06:33:08.025Z,45.00
2023-04-16T06:35:41.308Z,52.20
2023-04-16T06:38:14.598Z,47.88
2023-04-16T06:40:47.936Z,46.67
2023-04-16T06:43:23.371Z,50.72
2023-04-16T06:45:56.551Z,45.63
2023-04-16T06:48:29.339Z,54.53
2023-04-16T06:51:03.560Z,48.40
2023-04-16T06:56:22.960Z,43.03
2023-04-16T06:59:00.353Z,49.55
2023-04-16T07:01:37.880Z,42.15
2023-04-16T07:04:15.188Z,57.80
2023-04-16T07:06:49.242Z,49.80
2023-04-16T07:09:22.909Z,44.13
2023-04-16T07:12:01.210Z,45.95
2023-04-16T07:14:37.469Z,47.05
2023-04-16T07:17:10.274Z,51.00
2023-04-16T07:19:45.998Z,45.35
2023-04-16T07:22:19.319Z,47.92
2023-04-16T07:24:52.813Z,45.65
2023-04-16T07:27:26.238Z,54.05
2023-04-16T07:30:02.772Z,44.83
2023-04-16T07:32:37.022Z,48.13
2023-04-16T07:35:10.845Z,42.47
2023-04-16T07:37:43.990Z,44.45
2023-04-16T07:40:17.109Z,50.45
2023-04-16T07:42:50.379Z,51.08
2023-04-16T07:45:27.438Z,49.22
2023-04-16T07:48:02.885Z,39.78
2023-04-16T07:50:36.362Z,57.58
2023-04-16T07:53:09.676Z,44.55
2023-04-16T07:55:43.012Z,47.40
2023-04-16T07:58:16.520Z,39.67
2023-04-16T08:00:51.513Z,41.30
2023-04-16T08:03:25.016Z,45.22
2023-04-16T08:05:58.500Z,42.50
2023-04-16T08:08:32.619Z,41.58
2023-04-16T08:11:06.112Z,53.90
2023-04-16T08:13:39.502Z,42.70
2023-04-16T08:16:14.881Z,38.22
2023-04-16T08:18:47.783Z,47.65
2023-04-16T08:21:21.952Z,45.00
2023-04-16T08:23:55.248Z,40.38
2023-04-16T08:26:29.553Z,42.28
2023-04-16T08:29:03.407Z,39.85
2023-04-16T08:31:38.963Z,40.22
2023-04-16T08:34:13.006Z,43.40
2023-04-16T08:36:47.488Z,47.55
2023-04-16T08:39:20.671Z,45.05
2023-04-16T08:41:56.429Z,43.63
2023-04-16T08:44:31.874Z,44.28
2023-04-16T08:47:12.144Z,42.22
2023-04-16T08:49:49.344Z,57.28
2023-04-16T08:52:25.722Z,41.88
2023-04-16T08:55:09.528Z,42.00
2023-04-16T08:57:51.128Z,39.08
2023-04-16T09:00:29.294Z,44.05
2023-04-16T09:03:06.451Z,45.00
2023-04-16T09:05:40.120Z,44.20
2023-04-16T09:08:13.739Z,49.65
2023-04-16T09:10:48.517Z,41.95
2023-04-16T09:13:23.865Z,45.28
2023-04-16T09:15:58.643Z,46.67
2023-04-16T09:18:35.176Z,46.95
2023-04-16T09:21:10.287Z,44.38
2023-04-16T09:23:43.677Z,38.90
2023-04-16T09:26:19.165Z,49.17
2023-04-16T09:28:54.249Z,51.08
2023-04-16T09:31:28.784Z,47.08
2023-04-16T09:34:11.352Z,51.63
2023-04-16T09:36:44.664Z,48.22
2023-04-16T09:39:23.997Z,41.78
2023-04-16T09:41:58.489Z,45.17
2023-04-16T09:44:39.978Z,43.05
2023-04-16T09:47:14.096Z,48.85
2023-04-16T09:49:49.115Z,53.88
2023-04-16T09:52:24.552Z,48.40
2023-04-16T09:54:59.195Z,48.25
2023-04-16T09:57:34.278Z,52.72
2023-04-16T10:00:13.929Z,52.67
2023-04-16T10:02:50.661Z,46.63
2023-04-16T10:05:27.150Z,48.97
2023-04-16T10:08:05.976Z,46.30
2023-04-16T10:10:40.172Z,54.33
2023-04-16T10:13:19.154Z,47.47
2023-04-16T10:15:53.862Z,53.78
2023-04-16T10:18:27.925Z,45.08
2023-04-16T10:21:03.544Z,49.03
2023-04-16T10:23:37.548Z,50.03
2023-04-16T10:26:12.486Z,53.03
2023-04-16T10:28:46.797Z,43.28
2023-04-16T10:31:21.196Z,61.42
2023-04-16T10:33:54.735Z,55.00
2023-04-16T10:36:31.181Z,56.50
2023-04-16T10:39:04.854Z,51.88
2023-04-16T10:41:38.149Z,51.45
2023-04-16T10:44:13.207Z,45.53
2023-04-16T10:46:46.800Z,61.15
2023-04-16T10:49:25.759Z,44.50
2023-04-16T10:52:01.804Z,59.03
2023-04-16T10:54:38.673Z,46.72
2023-04-16T10:57:13.448Z,52.43
2023-04-16T10:59:48.023Z,41.67
2023-04-16T11:02:22.168Z,48.97
2023-04-16T11:04:57.802Z,43.67
2023-04-16T11:07:40.753Z,48.93
2023-04-16T11:10:17.974Z,51.27
2023-04-16T11:12:52.204Z,41.92
2023-04-16T11:15:26.354Z,55.93
2023-04-16T11:18:00.011Z,48.80
2023-04-16T11:20:36.309Z,60.43
2023-04-16T11:23:15.550Z,64.27
2023-04-16T11:25:49.444Z,55.77
2023-04-16T11:28:22.726Z,51.10
2023-04-16T11:30:56.926Z,58.03
2023-04-16T11:33:31.493Z,58.37
2023-04-16T11:36:05.754Z,57.63
2023-04-16T11:38:44.065Z,53.00
2023-04-16T11:41:25.003Z,55.57
2023-04-16T11:43:58.958Z,52.80
2023-04-16T11:46:45.033Z,45.70
2023-04-16T11:49:18.573Z,50.27
2023-04-16T11:51:53.685Z,54.63
2023-04-16T11:54:28.783Z,62.40
2023-04-16T11:57:02.088Z,61.53
2023-04-16T11:59:35.995Z,57.27
2023-04-16T12:02:09.791Z,49.03
2023-04-16T12:04:43.709Z,67.40
2023-04-16T12:07:18.221Z,63.33
2023-04-16T12:09:54.036Z,63.53
2023-04-16T12:12:38.820Z,53.87
2023-04-16T12:15:15.263Z,59.93
2023-04-16T12:17:56.295Z,59.47
2023-04-16T12:20:30.025Z,57.27
2023-04-16T12:23:15.544Z,73.70
2023-04-16T12:26:16.100Z,69.30
2023-04-16T12:28:49.362Z,57.30
2023-04-16T12:31:40.212Z,60.10
2023-04-16T12:34:13.840Z,59.70
2023-04-16T12:36:48.536Z,70.87
2023-04-16T12:39:22.216Z,66.77
2023-04-16T12:41:57.422Z,61.10
2023-04-16T12:44:31.494Z,65.20
2023-04-16T12:47:06.590Z,70.77
2023-04-16T12:49:41.310Z,64.00
2023-04-16T12:52:16.499Z,74.47
2023-04-16T12:54:52.218Z,65.37
2023-04-16T12:57:30.158Z,72.47
2023-04-16T13:00:04.281Z,63.93
2023-04-16T13:02:38.541Z,73.03
2023-04-16T13:05:12.572Z,79.27
2023-04-16T13:07:53.025Z,73.13
2023-04-16T13:10:29.339Z,66.43
2023-04-16T13:13:04.424Z,76.77
2023-04-16T13:15:41.809Z,76.47
2023-04-16T13:18:16.536Z,90.13
2023-04-16T13:20:51.006Z,67.63
2023-04-16T13:23:24.288Z,79.97
2023-04-16T13:25:57.367Z,62.93
2023-04-16T13:28:32.086Z,82.53
2023-04-16T13:31:05.942Z,73.90
2023-04-16T13:33:40.061Z,72.20
2023-04-16T13:36:13.572Z,78.07
2023-04-16T13:38:48.185Z,73.77
2023-04-16T13:41:21.100Z,72.67
2023-04-16T13:43:57.474Z,83.50
2023-04-16T13:46:33.109Z,79.83
2023-04-16T13:49:06.112Z,70.83
2023-04-16T13:51:39.557Z,84.77
2023-04-16T13:54:13.165Z,80.33
2023-04-16T13:56:46.568Z,84.97
2023-04-16T13:59:23.023Z,88.90
2023-04-16T14:01:57.915Z,91.47
2023-04-16T14:04:40.134Z,79.47
2023-04-16T14:07:16.211Z,86.63
2023-04-16T14:09:49.465Z,82.60
2023-04-16T14:12:22.414Z,89.80
2023-04-16T14:14:57.091Z,79.47
2023-04-16T14:17:31.379Z,77.27
2023-04-16T14:20:07.205Z,79.57
2023-04-16T14:22:43.346Z,83.80
2023-04-16T14:25:16.252Z,83.87
2023-04-16T14:27:49.765Z,82.73
2023-04-16T14:30:24.667Z,78.10
2023-04-16T14:39:02.974Z,85.30
2023-04-16T14:42:00.117Z,86.77
2023-04-16T14:44:48.191Z,91.33
2023-04-16T14:47:32.107Z,78.87
2023-04-16T14:50:18.666Z,81.87
2023-04-16T14:53:06.702Z,83.90
2023-04-16T14:55:47.359Z,81.27
2023-04-16T14:58:26.200Z,79.70
2023-04-16T15:02:20.347Z,82.03
2023-04-16T15:05:04.845Z,87.00
2023-04-16T15:08:05.300Z,76.50
2023-04-16T15:10:55.615Z,84.77
2023-04-16T15:13:44.351Z,73.17
2023-04-16T15:16:52.786Z,88.03
2023-04-16T15:19:31.864Z,84.40
2023-04-16T15:22:14.720Z,86.40
2023-04-16T15:24:51.379Z,74.23
2023-04-16T15:27:46.685Z,82.40
2023-04-16T15:30:22.376Z,80.67
2023-04-16T15:32:56.824Z,83.03
2023-04-16T15:35:29.679Z,102.47
2023-04-16T15:38:09.659Z,84.13
2023-04-16T15:41:01.549Z,82.90
2023-04-16T15:43:48.963Z,83.63
2023-04-16T15:46:36.627Z,75.97
2023-04-16T15:49:17.459Z,97.07
2023-04-16T15:52:05.191Z,88.73
2023-04-16T15:55:11.101Z,90.90
2023-04-16T15:57:53.641Z,86.97
2023-04-16T16:00:34.173Z,88.50
2023-04-16T16:03:08.289Z,89.43
2023-04-16T16:05:42.004Z,92.87
2023-04-16T16:08:16.595Z,92.20
2023-04-16T16:11:03.180Z,96.20
2023-04-16T16:13:46.891Z,89.03
2023-04-16T16:16:32.561Z,88.23
2023-04-16T16:19:13.427Z,89.80
2023-04-16T16:22:03.933Z,95.40
2023-04-16T16:24:57.571Z,91.60
2023-04-16T16:27:49.062Z,100.67
2023-04-16T16:30:34.064Z,91.70
2023-04-16T16:33:11.259Z,94.03
2023-04-16T16:35:46.914Z,99.07
2023-04-16T16:38:26.217Z,97.80
2023-04-16T16:41:04.057Z,93.93
2023-04-16T16:44:20.833Z,97.13
2023-04-16T16:47:18.630Z,96.53
2023-04-16T16:50:32.021Z,101.10
2023-04-16T16:53:29.868Z,108.77
2023-04-16T16:56:18.377Z,96.63
2023-04-16T16:59:03.559Z,99.83
2023-04-16T17:01:48.887Z,94.10
2023-04-16T17:04:45.159Z,95.30
2023-04-16T17:07:40.542Z,93.83
2023-04-16T17:10:50.018Z,91.10
2023-04-16T17:13:26.481Z,92.17
2023-04-16T17:16:50.960Z,97.07
2023-04-16T17:19:53.927Z,104.00
2023-04-16T17:28:46.195Z,114.73
2023-04-16T17:31:40.621Z,114.50
2023-04-16T17:34:25.252Z,104.57
2023-04-16T17:37:00.369Z,106.70
2023-04-16T17:39:42.456Z,121.43
2023-04-16T17:42:27.618Z,121.93
2023-04-16T17:45:03.413Z,118.90
2023-04-16T17:47:42.480Z,125.23
2023-04-16T17:50:36.469Z,131.93
2023-04-16T17:53:16.548Z,130.77
2023-04-16T17:56:11.562Z,136.70
2023-04-16T17:58:50.972Z,139.77
2023-04-16T18:01:34.689Z,133.77
2023-04-16T18:04:12.156Z,127.53
2023-04-16T18:06:45.650Z,125.73
2023-04-16T18:09:18.802Z,144.97
2023-04-16T18:11:51.996Z,143.70
2023-04-16T18:14:25.332Z,131.40
2023-04-16T18:16:59.778Z,135.50
2023-04-16T18:19:35.441Z,131.03
2023-04-16T18:22:11.126Z,136.00
2023-04-16T18:24:45.277Z,136.97
2023-04-16T18:27:18.504Z,131.80
2023-04-16T18:29:51.492Z,133.73
2023-04-16T18:32:24.566Z,128.77
2023-04-16T18:34:59.260Z,131.87
2023-04-16T18:37:32.344Z,140.50
2023-04-16T18:40:07.138Z,134.27
2023-04-16T18:42:41.427Z,141.90
2023-04-16T18:48:07.508Z,135.33
2023-04-16T18:51:05.659Z,141.23
2023-04-16T18:53:57.323Z,132.33
2023-04-16T18:56:38.578Z,127.07
2023-04-16T18:59:12.357Z,125.73
2023-04-16T19:01:45.613Z,128.70
2023-04-16T19:04:19.751Z,137.43
2023-04-16T19:06:56.335Z,128.50
2023-04-16T19:09:30.765Z,135.63
2023-04-16T19:12:04.893Z,140.07
2023-04-16T19:14:37.718Z,121.20
2023-04-16T19:17:10.846Z,127.27
2023-04-16T19:19:44.042Z,138.93
2023-04-16T19:22:27.506Z,133.37
2023-04-16T19:25:03.819Z,130.23
2023-04-16T19:27:44.372Z,122.90
2023-04-16T19:30:18.501Z,128.20
2023-04-16T19:33:00.896Z,121.60
2023-04-16T19:35:35.113Z,149.63
2023-04-16T19:38:15.319Z,136.33
2023-04-16T19:40:55.766Z,132.63
2023-04-16T19:43:35.458Z,133.67
2023-04-16T19:46:13.658Z,132.27
2023-04-16T19:48:50.026Z,114.37
2023-04-16T19:51:25.477Z,111.27
2023-04-16T19:54:03.852Z,128.17
2023-04-16T19:56:41.136Z,128.67
2023-04-16T19:59:24.205Z,132.50
2023-04-16T20:02:05.460Z,136.87
2023-04-16T20:04:41.480Z,127.10
2023-04-16T20:07:18.508Z,130.03
2023-04-16T20:09:57.009Z,127.00
2023-04-16T20:12:34.194Z,126.47
2023-04-16T20:15:13.542Z,130.77
2023-04-16T20:17:48.935Z,129.97
2023-04-16T20:20:28.161Z,129.00
2023-04-16T20:23:08.632Z,137.77
2023-04-16T20:25:56.910Z,142.93
2023-04-16T20:28:36.816Z,140.03
2023-04-16T20:31:15.561Z,142.07
2023-04-16T20:33:49.704Z,146.57
2023-04-16T20:36:24.264Z,134.33
2023-04-16T20:39:00.724Z,139.13
2023-04-16T20:41:44.355Z,139.00
2023-04-16T20:44:19.310Z,134.90
2023-04-16T20:46:57.495Z,139.30
2023-04-16T20:49:36.977Z,143.43
2023-04-16T20:52:12.855Z,134.63
2023-04-16T20:54:48.269Z,131.10
2023-04-16T20:57:38.192Z,133.73
2023-04-16T21:00:13.272Z,130.90
2023-04-16T21:02:50.414Z,119.30
2023-04-16T21:05:25.874Z,125.47
2023-04-16T21:08:00.335Z,118.47
2023-04-16T21:10:33.986Z,124.43
2023-04-16T21:13:15.844Z,136.50
2023-04-16T21:15:50.453Z,116.90
2023-04-16T21:18:32.011Z,117.37
2023-04-16T21:21:11.394Z,131.83
2023-04-16T21:23:48.632Z,115.40
2023-04-16T21:26:23.936Z,111.67
2023-04-16T21:29:09.141Z,118.73
2023-04-16T21:31:43.487Z,117.20
2023-04-16T21:34:21.873Z,119.57
2023-04-16T21:36:55.579Z,111.43
2023-04-16T21:39:32.071Z,118.10
2023-04-16T21:42:08.077Z,115.77
2023-04-16T21:44:48.177Z,130.67
2023-04-16T21:47:26.399Z,124.43
2023-04-16T21:50:00.519Z,124.90
2023-04-16T21:52:36.683Z,112.63
2023-04-16T21:55:14.310Z,105.73
2023-04-16T21:57:52.802Z,112.97
2023-04-16T22:00:34.331Z,115.93
2023-04-16T22:03:14.913Z,114.03
2023-04-16T22:05:50.032Z,120.60
2023-04-16T22:08:30.701Z,112.17
2023-04-16T22:11:08.947Z,117.97
2023-04-16T22:13:50.270Z,121.50
2023-04-16T22:16:42.657Z,123.87
2023-04-16T22:19:25.363Z,114.53
2023-04-16T22:22:03.253Z,115.50
2023-04-16T22:24:50.606Z,118.50
2023-04-16T22:27:30.026Z,116.57
2023-04-16T22:30:06.032Z,109.90
2023-04-16T22:32:43.358Z,116.47
2023-04-16T22:35:20.471Z,117.20
2023-04-16T22:38:16.113Z,112.97
2023-04-16T22:40:58.422Z,105.30
2023-04-16T22:43:36.442Z,100.43
2023-04-16T22:46:12.726Z,105.30
2023-04-16T22:48:54.052Z,98.53
2023-04-16T22:51:34.368Z,98.30
2023-04-16T22:54:08.676Z,98.67
2023-04-16T22:56:46.211Z,104.17
2023-04-16T22:59:22.102Z,92.90
2023-04-16T23:01:55.724Z,101.73
2023-04-16T23:04:31.838Z,91.97
2023-04-16T23:07:05.296Z,100.07
2023-04-16T23:09:42.197Z,86.87
2023-04-16T23:12:15.765Z,97.63
2023-04-16T23:14:50.646Z,85.60
2023-04-16T23:37:13.935Z,83.83
2023-04-16T23:39:57.731Z,78.47
2023-04-16T23:42:32.177Z,82.05
2023-04-16T23:45:36.023Z,80.32
2023-04-16T23:48:09.927Z,81.45
2023-04-16T23:50:43.303Z,80.68
2023-04-16T23:53:16.437Z,80.43
2023-04-16T23:55:53.786Z,75.10
2023-04-16T23:58:29.643Z,75.72
